sensor_id;sensor_type;location;lat;lon;timestamp;P1;durP1;ratioP1;P2;durP2;ratioP2
55222;SDS011;41090;48.632;12.428;2023-02-28T00:00:15;7.20;;;5.17;;
55222;SDS011;41090;48.632;12.428;2023-02-28T00:02:41;6.80;;;5.60;;
55222;SDS011;41090;48.632;12.428;2023-02-28T00:05:06;7.10;;;5.70;;
55222;SDS011;41090;48.632;12.428;2023-02-28T00:07:32;7.67;;;5.67;;
55222;SDS011;41090;48.632;12.428;2023-02-28T00:09:57;6.80;;;5.50;;
55222;SDS011;41090;48.632;12.428;2023-02-28T00:12:22;7.10;;;5.53;;
55222;SDS011;41090;48.632;12.428;2023-02-28T00:14:48;7.37;;;5.73;;
55222;SDS011;41090;48.632;12.428;2023-02-28T00:17:13;7.27;;;5.63;;
55222;SDS011;41090;48.632;12.428;2023-02-28T00:19:38;6.50;;;5.53;;
55222;SDS011;41090;48.632;12.428;2023-02-28T00:22:03;7.43;;;5.57;;
55222;SDS011;41090;48.632;12.428;2023-02-28T00:24:29;6.67;;;5.50;;
55222;SDS011;41090;48.632;12.428;2023-02-28T00:26:56;7.60;;;5.57;;
55222;SDS011;41090;48.632;12.428;2023-02-28T00:29:21;8.77;;;5.47;;
55222;SDS011;41090;48.632;12.428;2023-02-28T00:31:49;6.33;;;5.43;;
55222;SDS011;41090;48.632;12.428;2023-02-28T00:34:15;7.77;;;5.63;;
55222;SDS011;41090;48.632;12.428;2023-02-28T00:36:40;5.93;;;5.30;;
55222;SDS011;41090;48.632;12.428;2023-02-28T00:39:08;7.93;;;5.93;;
55222;SDS011;41090;48.632;12.428;2023-02-28T00:41:34;8.70;;;6.07;;
55222;SDS011;41090;48.632;12.428;2023-02-28T00:43:59;6.90;;;5.63;;
55222;SDS011;41090;48.632;12.428;2023-02-28T00:46:24;7.00;;;5.63;;
55222;SDS011;41090;48.632;12.428;2023-02-28T00:48:49;9.73;;;5.83;;
55222;SDS011;41090;48.632;12.428;2023-02-28T00:51:14;6.77;;;5.53;;
55222;SDS011;41090;48.632;12.428;2023-02-28T00:53:40;7.63;;;5.50;;
55222;SDS011;41090;48.632;12.428;2023-02-28T00:56:05;6.50;;;5.47;;
55222;SDS011;41090;48.632;12.428;2023-02-28T00:58:30;6.17;;;5.47;;
55222;SDS011;41090;48.632;12.428;2023-02-28T01:00:56;6.53;;;5.80;;
55222;SDS011;41090;48.632;12.428;2023-02-28T01:03:21;8.63;;;6.00;;
55222;SDS011;41090;48.632;12.428;2023-02-28T01:05:47;6.90;;;5.90;;
55222;SDS011;41090;48.632;12.428;2023-02-28T01:08:12;7.03;;;5.97;;
55222;SDS011;41090;48.632;12.428;2023-02-28T01:10:38;7.03;;;5.90;;
55222;SDS011;41090;48.632;12.428;2023-02-28T01:13:04;7.40;;;5.97;;
55222;SDS011;41090;48.632;12.428;2023-02-28T01:15:29;7.67;;;5.70;;
55222;SDS011;41090;48.632;12.428;2023-02-28T01:17:56;7.00;;;5.77;;
55222;SDS011;41090;48.632;12.428;2023-02-28T01:20:22;6.57;;;5.50;;
55222;SDS011;41090;48.632;12.428;2023-02-28T01:22:47;7.13;;;6.30;;
55222;SDS011;41090;48.632;12.428;2023-02-28T01:25:12;8.97;;;6.50;;
55222;SDS011;41090;48.632;12.428;2023-02-28T01:27:37;7.40;;;6.00;;
55222;SDS011;41090;48.632;12.428;2023-02-28T01:30:04;7.57;;;6.67;;
55222;SDS011;41090;48.632;12.428;2023-02-28T01:32:30;7.50;;;6.07;;
55222;SDS011;41090;48.632;12.428;2023-02-28T01:34:55;9.13;;;6.00;;
55222;SDS011;41090;48.632;12.428;2023-02-28T01:37:20;7.90;;;6.77;;
55222;SDS011;41090;48.632;12.428;2023-02-28T01:39:45;8.50;;;6.40;;
55222;SDS011;41090;48.632;12.428;2023-02-28T01:42:10;7.43;;;6.27;;
55222;SDS011;41090;48.632;12.428;2023-02-28T01:47:20;7.17;;;6.37;;
55222;SDS011;41090;48.632;12.428;2023-02-28T01:49:45;7.30;;;6.47;;
55222;SDS011;41090;48.632;12.428;2023-02-28T01:52:11;7.83;;;6.83;;
55222;SDS011;41090;48.632;12.428;2023-02-28T01:54:39;11.03;;;7.10;;
55222;SDS011;41090;48.632;12.428;2023-02-28T01:57:13;8.07;;;6.63;;
55222;SDS011;41090;48.632;12.428;2023-02-28T01:59:43;9.70;;;6.67;;
55222;SDS011;41090;48.632;12.428;2023-02-28T02:02:17;9.07;;;6.50;;
55222;SDS011;41090;48.632;12.428;2023-02-28T02:05:00;7.90;;;7.00;;
55222;SDS011;41090;48.632;12.428;2023-02-28T02:07:29;9.37;;;7.00;;
55222;SDS011;41090;48.632;12.428;2023-02-28T02:09:59;8.60;;;7.20;;
55222;SDS011;41090;48.632;12.428;2023-02-28T02:15:00;7.90;;;6.47;;
55222;SDS011;41090;48.632;12.428;2023-02-28T02:35:20;9.67;;;7.80;;
55222;SDS011;41090;48.632;12.428;2023-02-28T02:40:16;10.30;;;8.03;;
55222;SDS011;41090;48.632;12.428;2023-02-28T02:46:02;10.87;;;8.07;;
55222;SDS011;41090;48.632;12.428;2023-02-28T02:48:18;10.77;;;8.50;;
55222;SDS011;41090;48.632;12.428;2023-02-28T02:50:53;10.50;;;8.27;;
55222;SDS011;41090;48.632;12.428;2023-02-28T02:53:20;11.13;;;8.80;;
55222;SDS011;41090;48.632;12.428;2023-02-28T02:55:47;10.80;;;8.40;;
55222;SDS011;41090;48.632;12.428;2023-02-28T02:58:19;10.87;;;8.53;;
55222;SDS011;41090;48.632;12.428;2023-02-28T03:00:47;9.90;;;8.17;;
55222;SDS011;41090;48.632;12.428;2023-02-28T03:03:14;10.17;;;8.13;;
55222;SDS011;41090;48.632;12.428;2023-02-28T03:05:44;9.70;;;7.90;;
55222;SDS011;41090;48.632;12.428;2023-02-28T03:08:11;11.30;;;8.17;;
55222;SDS011;41090;48.632;12.428;2023-02-28T03:10:40;11.47;;;8.90;;
55222;SDS011;41090;48.632;12.428;2023-02-28T03:18:29;9.53;;;8.17;;
55222;SDS011;41090;48.632;12.428;2023-02-28T03:23:38;10.97;;;8.80;;
55222;SDS011;41090;48.632;12.428;2023-02-28T03:26:06;11.27;;;8.53;;
55222;SDS011;41090;48.632;12.428;2023-02-28T03:33:24;10.03;;;8.10;;
55222;SDS011;41090;48.632;12.428;2023-02-28T03:35:54;10.90;;;9.03;;
55222;SDS011;41090;48.632;12.428;2023-02-28T03:38:40;11.33;;;8.77;;
55222;SDS011;41090;48.632;12.428;2023-02-28T03:41:16;11.27;;;8.77;;
55222;SDS011;41090;48.632;12.428;2023-02-28T03:43:43;11.20;;;9.30;;
55222;SDS011;41090;48.632;12.428;2023-02-28T03:46:10;10.43;;;8.77;;
55222;SDS011;41090;48.632;12.428;2023-02-28T03:48:47;10.90;;;8.47;;
55222;SDS011;41090;48.632;12.428;2023-02-28T03:51:15;12.97;;;9.20;;
55222;SDS011;41090;48.632;12.428;2023-02-28T03:53:42;12.13;;;9.10;;
55222;SDS011;41090;48.632;12.428;2023-02-28T03:56:30;10.73;;;9.00;;
55222;SDS011;41090;48.632;12.428;2023-02-28T03:59:04;13.17;;;9.13;;
55222;SDS011;41090;48.632;12.428;2023-02-28T04:01:36;10.23;;;8.77;;
55222;SDS011;41090;48.632;12.428;2023-02-28T04:04:03;10.33;;;8.63;;
55222;SDS011;41090;48.632;12.428;2023-02-28T04:06:31;11.17;;;8.70;;
55222;SDS011;41090;48.632;12.428;2023-02-28T04:08:56;10.43;;;9.33;;
55222;SDS011;41090;48.632;12.428;2023-02-28T04:11:27;13.53;;;9.77;;
55222;SDS011;41090;48.632;12.428;2023-02-28T04:13:54;13.17;;;9.73;;
55222;SDS011;41090;48.632;12.428;2023-02-28T04:16:19;10.37;;;9.03;;
55222;SDS011;41090;48.632;12.428;2023-02-28T04:18:45;12.80;;;9.97;;
55222;SDS011;41090;48.632;12.428;2023-02-28T04:21:10;13.13;;;10.00;;
55222;SDS011;41090;48.632;12.428;2023-02-28T04:23:36;12.10;;;9.93;;
55222;SDS011;41090;48.632;12.428;2023-02-28T04:26:01;11.57;;;9.90;;
55222;SDS011;41090;48.632;12.428;2023-02-28T04:28:26;12.27;;;9.83;;
55222;SDS011;41090;48.632;12.428;2023-02-28T04:30:59;13.47;;;9.87;;
55222;SDS011;41090;48.632;12.428;2023-02-28T04:33:24;12.73;;;9.77;;
55222;SDS011;41090;48.632;12.428;2023-02-28T04:36:01;13.77;;;10.20;;
55222;SDS011;41090;48.632;12.428;2023-02-28T04:38:27;12.30;;;9.70;;
55222;SDS011;41090;48.632;12.428;2023-02-28T04:40:52;11.00;;;9.20;;
55222;SDS011;41090;48.632;12.428;2023-02-28T04:43:18;12.90;;;10.23;;
55222;SDS011;41090;48.632;12.428;2023-02-28T04:45:43;13.73;;;10.60;;
55222;SDS011;41090;48.632;12.428;2023-02-28T04:48:08;13.43;;;10.53;;
55222;SDS011;41090;48.632;12.428;2023-02-28T04:50:33;13.80;;;10.20;;
55222;SDS011;41090;48.632;12.428;2023-02-28T04:52:58;13.40;;;10.30;;
55222;SDS011;41090;48.632;12.428;2023-02-28T04:55:24;12.57;;;10.10;;
55222;SDS011;41090;48.632;12.428;2023-02-28T04:57:49;14.77;;;10.90;;
55222;SDS011;41090;48.632;12.428;2023-02-28T05:00:14;16.30;;;11.73;;
55222;SDS011;41090;48.632;12.428;2023-02-28T05:02:41;13.83;;;10.90;;
55222;SDS011;41090;48.632;12.428;2023-02-28T05:05:07;14.00;;;10.77;;
55222;SDS011;41090;48.632;12.428;2023-02-28T05:07:32;14.83;;;10.37;;
55222;SDS011;41090;48.632;12.428;2023-02-28T05:09:57;12.50;;;10.13;;
55222;SDS011;41090;48.632;12.428;2023-02-28T05:12:23;14.50;;;10.50;;
55222;SDS011;41090;48.632;12.428;2023-02-28T05:14:48;12.27;;;10.67;;
55222;SDS011;41090;48.632;12.428;2023-02-28T05:17:13;14.27;;;11.17;;
55222;SDS011;41090;48.632;12.428;2023-02-28T05:19:38;14.43;;;11.23;;
55222;SDS011;41090;48.632;12.428;2023-02-28T05:22:03;11.70;;;9.90;;
55222;SDS011;41090;48.632;12.428;2023-02-28T05:24:29;13.53;;;10.53;;
55222;SDS011;41090;48.632;12.428;2023-02-28T05:26:54;21.50;;;14.63;;
55222;SDS011;41090;48.632;12.428;2023-02-28T05:29:19;18.77;;;13.40;;
55222;SDS011;41090;48.632;12.428;2023-02-28T05:31:45;21.50;;;14.80;;
55222;SDS011;41090;48.632;12.428;2023-02-28T05:34:10;19.83;;;13.70;;
55222;SDS011;41090;48.632;12.428;2023-02-28T05:36:37;18.67;;;12.70;;
55222;SDS011;41090;48.632;12.428;2023-02-28T05:39:02;15.53;;;11.70;;
55222;SDS011;41090;48.632;12.428;2023-02-28T05:41:28;15.77;;;12.30;;
55222;SDS011;41090;48.632;12.428;2023-02-28T05:43:53;14.43;;;11.67;;
55222;SDS011;41090;48.632;12.428;2023-02-28T05:46:18;15.23;;;12.13;;
55222;SDS011;41090;48.632;12.428;2023-02-28T05:48:45;15.90;;;11.57;;
55222;SDS011;41090;48.632;12.428;2023-02-28T05:51:11;14.70;;;10.87;;
55222;SDS011;41090;48.632;12.428;2023-02-28T05:53:36;12.30;;;10.03;;
55222;SDS011;41090;48.632;12.428;2023-02-28T05:56:02;15.00;;;10.83;;
55222;SDS011;41090;48.632;12.428;2023-02-28T05:58:28;14.43;;;10.83;;
55222;SDS011;41090;48.632;12.428;2023-02-28T06:00:56;15.07;;;11.03;;
55222;SDS011;41090;48.632;12.428;2023-02-28T06:03:21;22.77;;;15.93;;
55222;SDS011;41090;48.632;12.428;2023-02-28T06:05:46;34.97;;;21.93;;
55222;SDS011;41090;48.632;12.428;2023-02-28T06:08:12;39.77;;;23.23;;
55222;SDS011;41090;48.632;12.428;2023-02-28T06:10:37;29.80;;;17.90;;
55222;SDS011;41090;48.632;12.428;2023-02-28T06:13:03;24.97;;;16.37;;
55222;SDS011;41090;48.632;12.428;2023-02-28T06:15:28;21.20;;;15.67;;
55222;SDS011;41090;48.632;12.428;2023-02-28T06:17:54;21.80;;;14.97;;
55222;SDS011;41090;48.632;12.428;2023-02-28T06:20:21;20.87;;;14.13;;
55222;SDS011;41090;48.632;12.428;2023-02-28T06:22:47;22.97;;;15.13;;
55222;SDS011;41090;48.632;12.428;2023-02-28T06:25:12;18.63;;;13.20;;
55222;SDS011;41090;48.632;12.428;2023-02-28T06:27:37;17.10;;;12.17;;
55222;SDS011;41090;48.632;12.428;2023-02-28T06:30:03;16.47;;;12.30;;
55222;SDS011;41090;48.632;12.428;2023-02-28T06:32:28;16.67;;;11.47;;
55222;SDS011;41090;48.632;12.428;2023-02-28T06:34:53;15.47;;;12.57;;
55222;SDS011;41090;48.632;12.428;2023-02-28T06:37:21;15.10;;;11.30;;
55222;SDS011;41090;48.632;12.428;2023-02-28T06:39:46;15.93;;;12.33;;
55222;SDS011;41090;48.632;12.428;2023-02-28T06:42:11;15.53;;;11.27;;
55222;SDS011;41090;48.632;12.428;2023-02-28T06:44:36;17.30;;;13.20;;
55222;SDS011;41090;48.632;12.428;2023-02-28T06:47:03;14.80;;;11.33;;
55222;SDS011;41090;48.632;12.428;2023-02-28T06:49:32;17.13;;;12.37;;
55222;SDS011;41090;48.632;12.428;2023-02-28T06:51:57;17.53;;;12.93;;
55222;SDS011;41090;48.632;12.428;2023-02-28T06:54:23;16.37;;;12.63;;
55222;SDS011;41090;48.632;12.428;2023-02-28T06:56:48;18.73;;;13.10;;
55222;SDS011;41090;48.632;12.428;2023-02-28T06:59:13;15.00;;;12.53;;
55222;SDS011;41090;48.632;12.428;2023-02-28T07:01:39;18.37;;;12.03;;
55222;SDS011;41090;48.632;12.428;2023-02-28T07:04:10;14.40;;;11.53;;
55222;SDS011;41090;48.632;12.428;2023-02-28T07:06:35;15.00;;;11.27;;
55222;SDS011;41090;48.632;12.428;2023-02-28T07:09:01;14.73;;;10.73;;
55222;SDS011;41090;48.632;12.428;2023-02-28T07:11:26;16.30;;;12.97;;
55222;SDS011;41090;48.632;12.428;2023-02-28T07:13:53;15.63;;;11.87;;
55222;SDS011;41090;48.632;12.428;2023-02-28T07:16:18;13.00;;;10.93;;
55222;SDS011;41090;48.632;12.428;2023-02-28T07:18:43;15.73;;;13.90;;
55222;SDS011;41090;48.632;12.428;2023-02-28T07:21:09;14.57;;;12.13;;
55222;SDS011;41090;48.632;12.428;2023-02-28T07:23:35;14.53;;;10.60;;
55222;SDS011;41090;48.632;12.428;2023-02-28T07:26:00;11.67;;;9.70;;
55222;SDS011;41090;48.632;12.428;2023-02-28T07:28:25;12.77;;;10.47;;
55222;SDS011;41090;48.632;12.428;2023-02-28T07:30:51;10.97;;;9.30;;
55222;SDS011;41090;48.632;12.428;2023-02-28T07:33:16;11.63;;;9.60;;
55222;SDS011;41090;48.632;12.428;2023-02-28T07:35:41;14.07;;;9.23;;
55222;SDS011;41090;48.632;12.428;2023-02-28T07:38:07;12.03;;;9.10;;
55222;SDS011;41090;48.632;12.428;2023-02-28T07:40:35;10.13;;;8.30;;
55222;SDS011;41090;48.632;12.428;2023-02-28T07:43:01;12.50;;;9.10;;
55222;SDS011;41090;48.632;12.428;2023-02-28T07:45:26;13.87;;;9.97;;
55222;SDS011;41090;48.632;12.428;2023-02-28T07:47:53;11.60;;;9.67;;
55222;SDS011;41090;48.632;12.428;2023-02-28T07:50:19;10.17;;;8.90;;
55222;SDS011;41090;48.632;12.428;2023-02-28T07:52:44;11.07;;;9.43;;
55222;SDS011;41090;48.632;12.428;2023-02-28T07:55:10;9.57;;;8.57;;
55222;SDS011;41090;48.632;12.428;2023-02-28T07:57:35;10.97;;;9.20;;
55222;SDS011;41090;48.632;12.428;2023-02-28T08:00:01;10.00;;;8.60;;
55222;SDS011;41090;48.632;12.428;2023-02-28T08:02:26;12.47;;;8.93;;
55222;SDS011;41090;48.632;12.428;2023-02-28T08:04:52;11.20;;;8.97;;
55222;SDS011;41090;48.632;12.428;2023-02-28T08:07:17;11.30;;;8.57;;
55222;SDS011;41090;48.632;12.428;2023-02-28T08:09:44;10.60;;;8.57;;
55222;SDS011;41090;48.632;12.428;2023-02-28T08:12:10;10.43;;;7.97;;
55222;SDS011;41090;48.632;12.428;2023-02-28T08:14:36;11.27;;;8.87;;
55222;SDS011;41090;48.632;12.428;2023-02-28T08:17:01;9.77;;;8.73;;
55222;SDS011;41090;48.632;12.428;2023-02-28T08:19:27;11.83;;;8.80;;
55222;SDS011;41090;48.632;12.428;2023-02-28T08:21:53;12.27;;;8.77;;
55222;SDS011;41090;48.632;12.428;2023-02-28T08:24:19;9.80;;;8.80;;
55222;SDS011;41090;48.632;12.428;2023-02-28T08:26:44;10.07;;;8.73;;
55222;SDS011;41090;48.632;12.428;2023-02-28T08:29:09;11.87;;;9.10;;
55222;SDS011;41090;48.632;12.428;2023-02-28T08:31:34;10.43;;;9.07;;
55222;SDS011;41090;48.632;12.428;2023-02-28T08:34:04;12.47;;;9.20;;
55222;SDS011;41090;48.632;12.428;2023-02-28T08:36:29;10.17;;;8.97;;
55222;SDS011;41090;48.632;12.428;2023-02-28T08:38:54;10.67;;;8.90;;
55222;SDS011;41090;48.632;12.428;2023-02-28T08:41:20;10.60;;;8.60;;
55222;SDS011;41090;48.632;12.428;2023-02-28T08:43:46;10.07;;;9.07;;
55222;SDS011;41090;48.632;12.428;2023-02-28T08:46:12;10.50;;;8.97;;
55222;SDS011;41090;48.632;12.428;2023-02-28T08:48:38;10.67;;;8.97;;
55222;SDS011;41090;48.632;12.428;2023-02-28T08:51:04;9.77;;;8.83;;
55222;SDS011;41090;48.632;12.428;2023-02-28T08:53:30;11.37;;;9.70;;
55222;SDS011;41090;48.632;12.428;2023-02-28T08:55:59;10.13;;;9.13;;
55222;SDS011;41090;48.632;12.428;2023-02-28T08:58:25;11.07;;;8.60;;
55222;SDS011;41090;48.632;12.428;2023-02-28T09:00:50;11.00;;;9.90;;
55222;SDS011;41090;48.632;12.428;2023-02-28T09:03:16;11.20;;;8.93;;
55222;SDS011;41090;48.632;12.428;2023-02-28T09:05:50;9.33;;;8.33;;
55222;SDS011;41090;48.632;12.428;2023-02-28T09:08:16;9.67;;;8.77;;
55222;SDS011;41090;48.632;12.428;2023-02-28T09:10:41;9.37;;;8.43;;
55222;SDS011;41090;48.632;12.428;2023-02-28T09:13:06;9.17;;;8.27;;
55222;SDS011;41090;48.632;12.428;2023-02-28T09:15:31;9.83;;;8.83;;
55222;SDS011;41090;48.632;12.428;2023-02-28T09:17:57;9.23;;;8.17;;
55222;SDS011;41090;48.632;12.428;2023-02-28T09:20:22;9.10;;;8.17;;
55222;SDS011;41090;48.632;12.428;2023-02-28T09:22:47;8.83;;;7.87;;
55222;SDS011;41090;48.632;12.428;2023-02-28T09:25:13;9.63;;;8.63;;
55222;SDS011;41090;48.632;12.428;2023-02-28T09:27:38;9.17;;;8.27;;
55222;SDS011;41090;48.632;12.428;2023-02-28T09:30:04;9.87;;;8.77;;
55222;SDS011;41090;48.632;12.428;2023-02-28T09:32:29;9.27;;;8.37;;
55222;SDS011;41090;48.632;12.428;2023-02-28T09:34:54;9.87;;;8.90;;
55222;SDS011;41090;48.632;12.428;2023-02-28T09:37:19;9.07;;;8.17;;
55222;SDS011;41090;48.632;12.428;2023-02-28T09:39:45;9.57;;;8.67;;
55222;SDS011;41090;48.632;12.428;2023-02-28T09:42:21;9.10;;;8.20;;
55222;SDS011;41090;48.632;12.428;2023-02-28T09:44:47;8.63;;;7.80;;
55222;SDS011;41090;48.632;12.428;2023-02-28T09:49:47;9.53;;;8.53;;
55222;SDS011;41090;48.632;12.428;2023-02-28T09:52:20;9.10;;;8.27;;
55222;SDS011;41090;48.632;12.428;2023-02-28T09:54:46;9.70;;;8.73;;
55222;SDS011;41090;48.632;12.428;2023-02-28T10:04:59;9.43;;;8.53;;
55222;SDS011;41090;48.632;12.428;2023-02-28T10:10:15;9.63;;;8.63;;
55222;SDS011;41090;48.632;12.428;2023-02-28T10:12:43;8.63;;;7.83;;
55222;SDS011;41090;48.632;12.428;2023-02-28T10:15:12;20.00;;;15.23;;
55222;SDS011;41090;48.632;12.428;2023-02-28T10:17:39;9.27;;;8.27;;
55222;SDS011;41090;48.632;12.428;2023-02-28T10:20:12;9.80;;;8.80;;
55222;SDS011;41090;48.632;12.428;2023-02-28T10:25:05;9.37;;;8.47;;
55222;SDS011;41090;48.632;12.428;2023-02-28T10:27:40;9.50;;;8.40;;
55222;SDS011;41090;48.632;12.428;2023-02-28T10:30:05;9.30;;;8.50;;
55222;SDS011;41090;48.632;12.428;2023-02-28T10:32:34;9.43;;;8.43;;
55222;SDS011;41090;48.632;12.428;2023-02-28T10:37:37;9.63;;;8.70;;
55222;SDS011;41090;48.632;12.428;2023-02-28T10:40:04;9.47;;;7.63;;
55222;SDS011;41090;48.632;12.428;2023-02-28T10:42:31;8.80;;;8.00;;
55222;SDS011;41090;48.632;12.428;2023-02-28T10:45:12;10.13;;;8.35;;
55222;SDS011;41090;48.632;12.428;2023-02-28T10:47:41;9.30;;;8.40;;
55222;SDS011;41090;48.632;12.428;2023-02-28T10:50:33;10.10;;;9.20;;
55222;SDS011;41090;48.632;12.428;2023-02-28T10:53:34;8.77;;;8.02;;
55222;SDS011;41090;48.632;12.428;2023-02-28T10:56:02;8.73;;;7.88;;
55222;SDS011;41090;48.632;12.428;2023-02-28T10:58:47;9.27;;;8.38;;
55222;SDS011;41090;48.632;12.428;2023-02-28T11:04:00;9.00;;;8.10;;
55222;SDS011;41090;48.632;12.428;2023-02-28T11:06:27;9.07;;;8.15;;
55222;SDS011;41090;48.632;12.428;2023-02-28T11:09:18;8.80;;;7.90;;
55222;SDS011;41090;48.632;12.428;2023-02-28T11:11:43;8.55;;;7.75;;
55222;SDS011;41090;48.632;12.428;2023-02-28T11:14:18;8.40;;;7.60;;
55222;SDS011;41090;48.632;12.428;2023-02-28T11:16:45;9.45;;;8.55;;
55222;SDS011;41090;48.632;12.428;2023-02-28T11:19:16;8.88;;;8.07;;
55222;SDS011;41090;48.632;12.428;2023-02-28T11:21:46;8.90;;;8.07;;
55222;SDS011;41090;48.632;12.428;2023-02-28T11:24:24;9.63;;;8.68;;
55222;SDS011;41090;48.632;12.428;2023-02-28T11:26:49;8.80;;;7.93;;
55222;SDS011;41090;48.632;12.428;2023-02-28T11:29:24;10.10;;;9.20;;
55222;SDS011;41090;48.632;12.428;2023-02-28T11:34:27;8.98;;;8.13;;
55222;SDS011;41090;48.632;12.428;2023-02-28T11:36:53;10.57;;;9.48;;
55222;SDS011;41090;48.632;12.428;2023-02-28T11:39:19;10.65;;;9.57;;
55222;SDS011;41090;48.632;12.428;2023-02-28T11:45:07;10.43;;;9.43;;
55222;SDS011;41090;48.632;12.428;2023-02-28T11:47:17;11.18;;;9.98;;
55222;SDS011;41090;48.632;12.428;2023-02-28T11:50:18;11.38;;;9.48;;
55222;SDS011;41090;48.632;12.428;2023-02-28T11:52:38;11.82;;;10.63;;
55222;SDS011;41090;48.632;12.428;2023-02-28T12:00:08;10.15;;;9.15;;
55222;SDS011;41090;48.632;12.428;2023-02-28T12:08:04;11.45;;;10.32;;
55222;SDS011;41090;48.632;12.428;2023-02-28T12:11:05;10.60;;;9.60;;
55222;SDS011;41090;48.632;12.428;2023-02-28T12:13:29;9.30;;;8.35;;
55222;SDS011;41090;48.632;12.428;2023-02-28T12:16:11;10.00;;;9.07;;
55222;SDS011;41090;48.632;12.428;2023-02-28T12:23:56;9.73;;;8.93;;
55222;SDS011;41090;48.632;12.428;2023-02-28T12:26:38;9.20;;;8.30;;
55222;SDS011;41090;48.632;12.428;2023-02-28T12:29:42;9.50;;;8.60;;
55222;SDS011;41090;48.632;12.428;2023-02-28T12:31:59;9.47;;;8.50;;
55222;SDS011;41090;48.632;12.428;2023-02-28T12:37:03;10.13;;;8.93;;
55222;SDS011;41090;48.632;12.428;2023-02-28T12:39:30;9.40;;;8.50;;
55222;SDS011;41090;48.632;12.428;2023-02-28T12:42:13;9.57;;;8.67;;
55222;SDS011;41090;48.632;12.428;2023-02-28T12:44:46;10.20;;;9.20;;
55222;SDS011;41090;48.632;12.428;2023-02-28T12:47:14;9.50;;;8.60;;
55222;SDS011;41090;48.632;12.428;2023-02-28T12:52:05;10.83;;;9.73;;
55222;SDS011;41090;48.632;12.428;2023-02-28T13:07:29;11.43;;;10.33;;
55222;SDS011;41090;48.632;12.428;2023-02-28T13:09:58;10.53;;;9.53;;
55222;SDS011;41090;48.632;12.428;2023-02-28T13:12:24;11.73;;;10.43;;
55222;SDS011;41090;48.632;12.428;2023-02-28T13:14:50;11.23;;;10.10;;
55222;SDS011;41090;48.632;12.428;2023-02-28T13:17:19;11.97;;;10.80;;
55222;SDS011;41090;48.632;12.428;2023-02-28T13:19:46;10.43;;;9.43;;
55222;SDS011;41090;48.632;12.428;2023-02-28T13:22:37;10.80;;;9.80;;
55222;SDS011;41090;48.632;12.428;2023-02-28T13:25:49;10.73;;;9.73;;
55222;SDS011;41090;48.632;12.428;2023-02-28T13:27:49;11.43;;;10.43;;
55222;SDS011;41090;48.632;12.428;2023-02-28T13:35:48;11.60;;;10.40;;
55222;SDS011;41090;48.632;12.428;2023-02-28T13:38:16;12.73;;;11.57;;
55222;SDS011;41090;48.632;12.428;2023-02-28T13:40:41;12.63;;;11.43;;
55222;SDS011;41090;48.632;12.428;2023-02-28T13:43:07;11.77;;;10.57;;
55222;SDS011;41090;48.632;12.428;2023-02-28T13:45:34;14.27;;;12.07;;
55222;SDS011;41090;48.632;12.428;2023-02-28T13:48:24;11.47;;;10.37;;
55222;SDS011;41090;48.632;12.428;2023-02-28T13:50:48;12.77;;;11.47;;
55222;SDS011;41090;48.632;12.428;2023-02-28T13:53:22;12.73;;;11.43;;
55222;SDS011;41090;48.632;12.428;2023-02-28T13:56:03;12.77;;;11.47;;
55222;SDS011;41090;48.632;12.428;2023-02-28T14:01:03;11.90;;;10.70;;
55222;SDS011;41090;48.632;12.428;2023-02-28T14:06:25;10.80;;;9.67;;
55222;SDS011;41090;48.632;12.428;2023-02-28T14:11:27;11.63;;;10.50;;
55222;SDS011;41090;48.632;12.428;2023-02-28T14:13:53;15.43;;;11.03;;
55222;SDS011;41090;48.632;12.428;2023-02-28T14:16:23;13.13;;;11.83;;
55222;SDS011;41090;48.632;12.428;2023-02-28T14:18:59;11.93;;;10.67;;
55222;SDS011;41090;48.632;12.428;2023-02-28T14:21:26;12.10;;;10.87;;
55222;SDS011;41090;48.632;12.428;2023-02-28T14:32:25;12.53;;;11.23;;
55222;SDS011;41090;48.632;12.428;2023-02-28T14:37:16;13.10;;;11.80;;
55222;SDS011;41090;48.632;12.428;2023-02-28T14:39:41;13.10;;;11.80;;
55222;SDS011;41090;48.632;12.428;2023-02-28T14:45:21;13.10;;;11.50;;
55222;SDS011;41090;48.632;12.428;2023-02-28T14:47:46;13.43;;;11.80;;
55222;SDS011;41090;48.632;12.428;2023-02-28T14:53:11;12.50;;;11.30;;
55222;SDS011;41090;48.632;12.428;2023-02-28T14:55:43;13.70;;;12.20;;
55222;SDS011;41090;48.632;12.428;2023-02-28T14:58:19;15.43;;;12.30;;
55222;SDS011;41090;48.632;12.428;2023-02-28T15:00:47;16.30;;;11.90;;
55222;SDS011;41090;48.632;12.428;2023-02-28T15:05:50;13.90;;;12.07;;
55222;SDS011;41090;48.632;12.428;2023-02-28T15:08:16;13.50;;;12.10;;
55222;SDS011;41090;48.632;12.428;2023-02-28T15:10:52;13.77;;;12.47;;
55222;SDS011;41090;48.632;12.428;2023-02-28T15:13:18;12.63;;;11.33;;
55222;SDS011;41090;48.632;12.428;2023-02-28T15:18:16;13.10;;;11.80;;
55222;SDS011;41090;48.632;12.428;2023-02-28T15:20:47;13.30;;;12.00;;
55222;SDS011;41090;48.632;12.428;2023-02-28T15:23:12;12.80;;;11.47;;
55222;SDS011;41090;48.632;12.428;2023-02-28T15:25:39;14.50;;;13.00;;
55222;SDS011;41090;48.632;12.428;2023-02-28T15:28:04;14.60;;;13.03;;
55222;SDS011;41090;48.632;12.428;2023-02-28T15:30:30;15.33;;;12.57;;
55222;SDS011;41090;48.632;12.428;2023-02-28T15:33:03;14.53;;;12.93;;
55222;SDS011;41090;48.632;12.428;2023-02-28T15:35:29;14.50;;;12.90;;
55222;SDS011;41090;48.632;12.428;2023-02-28T15:38:03;13.37;;;11.97;;
55222;SDS011;41090;48.632;12.428;2023-02-28T15:40:38;15.13;;;13.20;;
55222;SDS011;41090;48.632;12.428;2023-02-28T15:43:13;15.47;;;12.60;;
55222;SDS011;41090;48.632;12.428;2023-02-28T15:45:41;14.03;;;12.53;;
55222;SDS011;41090;48.632;12.428;2023-02-28T15:48:19;15.47;;;13.17;;
55222;SDS011;41090;48.632;12.428;2023-02-28T15:50:52;14.57;;;12.93;;
55222;SDS011;41090;48.632;12.428;2023-02-28T15:54:04;15.43;;;13.43;;
55222;SDS011;41090;48.632;12.428;2023-02-28T15:56:05;15.77;;;14.07;;
55222;SDS011;41090;48.632;12.428;2023-02-28T15:58:31;16.87;;;13.27;;
55222;SDS011;41090;48.632;12.428;2023-02-28T16:01:00;16.03;;;13.60;;
55222;SDS011;41090;48.632;12.428;2023-02-28T16:03:26;15.37;;;13.37;;
55222;SDS011;41090;48.632;12.428;2023-02-28T16:08:36;15.37;;;13.43;;
55222;SDS011;41090;48.632;12.428;2023-02-28T16:11:01;18.40;;;13.57;;
55222;SDS011;41090;48.632;12.428;2023-02-28T16:13:26;16.00;;;13.20;;
55222;SDS011;41090;48.632;12.428;2023-02-28T16:15:51;15.70;;;13.57;;
55222;SDS011;41090;48.632;12.428;2023-02-28T16:18:17;15.27;;;13.67;;
55222;SDS011;41090;48.632;12.428;2023-02-28T16:20:42;16.10;;;14.07;;
55222;SDS011;41090;48.632;12.428;2023-02-28T16:23:09;20.03;;;14.73;;
55222;SDS011;41090;48.632;12.428;2023-02-28T16:25:36;16.87;;;13.87;;
55222;SDS011;41090;48.632;12.428;2023-02-28T16:28:03;15.13;;;13.53;;
55222;SDS011;41090;48.632;12.428;2023-02-28T16:30:28;16.70;;;13.87;;
55222;SDS011;41090;48.632;12.428;2023-02-28T16:32:56;17.97;;;14.23;;
55222;SDS011;41090;48.632;12.428;2023-02-28T16:35:22;23.50;;;16.70;;
55222;SDS011;41090;48.632;12.428;2023-02-28T16:37:47;19.90;;;15.80;;
55222;SDS011;41090;48.632;12.428;2023-02-28T16:40:14;18.80;;;14.13;;
55222;SDS011;41090;48.632;12.428;2023-02-28T16:42:40;22.47;;;15.27;;
55222;SDS011;41090;48.632;12.428;2023-02-28T16:45:05;18.43;;;15.33;;